sensor_id;sensor_type;location;lat;lon;timestamp;temperature;humidity
28608;DHT22;15802;45.654;13.804;2022-07-29T00:00:04;25.60;99.90
28608;DHT22;15802;45.654;13.804;2022-07-29T00:02:30;25.60;99.90
28608;DHT22;15802;45.654;13.804;2022-07-29T00:04:57;25.60;99.90
28608;DHT22;15802;45.654;13.804;2022-07-29T00:07:23;25.60;99.90
28608;DHT22;15802;45.654;13.804;2022-07-29T00:09:49;25.70;99.90
28608;DHT22;15802;45.654;13.804;2022-07-29T00:12:15;25.70;99.90
28608;DHT22;15802;45.654;13.804;2022-07-29T00:14:41;25.70;99.90
28608;DHT22;15802;45.654;13.804;2022-07-29T00:17:07;25.70;99.90
28608;DHT22;15802;45.654;13.804;2022-07-29T00:19:32;25.60;99.90
28608;DHT22;15802;45.654;13.804;2022-07-29T00:22:00;25.60;99.90
28608;DHT22;15802;45.654;13.804;2022-07-29T00:24:25;25.50;99.90
28608;DHT22;15802;45.654;13.804;2022-07-29T00:26:51;25.60;99.90
28608;DHT22;15802;45.654;13.804;2022-07-29T00:29:17;25.60;99.90
28608;DHT22;15802;45.654;13.804;2022-07-29T00:31:43;25.50;99.90
28608;DHT22;15802;45.654;13.804;2022-07-29T00:34:09;25.50;99.90
28608;DHT22;15802;45.654;13.804;2022-07-29T00:36:55;25.50;99.90
28608;DHT22;15802;45.654;13.804;2022-07-29T00:39:20;25.50;99.90
28608;DHT22;15802;45.654;13.804;2022-07-29T00:41:46;25.60;99.90
28608;DHT22;15802;45.654;13.804;2022-07-29T00:44:12;25.60;99.90
28608;DHT22;15802;45.654;13.804;2022-07-29T00:46:38;25.60;99.90
28608;DHT22;15802;45.654;13.804;2022-07-29T00:49:03;25.60;99.90
28608;DHT22;15802;45.654;13.804;2022-07-29T00:51:30;25.60;99.90
28608;DHT22;15802;45.654;13.804;2022-07-29T00:53:57;25.60;99.90
28608;DHT22;15802;45.654;13.804;2022-07-29T00:56:22;25.60;99.90
28608;DHT22;15802;45.654;13.804;2022-07-29T00:58:50;25.70;99.90
28608;DHT22;15802;45.654;13.804;2022-07-29T01:01:16;25.70;99.90
28608;DHT22;15802;45.654;13.804;2022-07-29T01:03:41;25.70;99.90
28608;DHT22;15802;45.654;13.804;2022-07-29T01:06:07;25.70;99.90
28608;DHT22;15802;45.654;13.804;2022-07-29T01:08:34;25.70;99.90
28608;DHT22;15802;45.654;13.804;2022-07-29T01:11:02;25.70;99.90
28608;DHT22;15802;45.654;13.804;2022-07-29T01:13:29;25.70;99.90
28608;DHT22;15802;45.654;13.804;2022-07-29T01:16:04;25.70;99.90
28608;DHT22;15802;45.654;13.804;2022-07-29T01:18:34;25.70;99.90
28608;DHT22;15802;45.654;13.804;2022-07-29T01:21:08;25.70;99.90
28608;DHT22;15802;45.654;13.804;2022-07-29T01:23:53;25.60;99.90
28608;DHT22;15802;45.654;13.804;2022-07-29T01:27:04;25.60;99.90
28608;DHT22;15802;45.654;13.804;2022-07-29T01:29:41;25.60;99.90
28608;DHT22;15802;45.654;13.804;2022-07-29T01:32:12;25.60;99.90
28608;DHT22;15802;45.654;13.804;2022-07-29T01:34:46;25.60;99.90
28608;DHT22;15802;45.654;13.804;2022-07-29T01:37:19;25.50;99.90
28608;DHT22;15802;45.654;13.804;2022-07-29T01:39:48;25.50;99.90
28608;DHT22;15802;45.654;13.804;2022-07-29T01:42:29;25.50;99.90
28608;DHT22;15802;45.654;13.804;2022-07-29T01:45:02;25.50;99.90
28608;DHT22;15802;45.654;13.804;2022-07-29T01:47:37;25.50;99.90
28608;DHT22;15802;45.654;13.804;2022-07-29T01:50:07;25.40;99.90
28608;DHT22;15802;45.654;13.804;2022-07-29T01:52:37;25.30;99.90
28608;DHT22;15802;45.654;13.804;2022-07-29T01:55:09;25.40;99.90
28608;DHT22;15802;45.654;13.804;2022-07-29T01:57:38;25.40;99.90
28608;DHT22;15802;45.654;13.804;2022-07-29T02:00:05;25.30;99.90
28608;DHT22;15802;45.654;13.804;2022-07-29T02:02:32;25.40;99.90
28608;DHT22;15802;45.654;13.804;2022-07-29T02:05:00;25.30;99.90
28608;DHT22;15802;45.654;13.804;2022-07-29T02:07:29;25.30;99.90
28608;DHT22;15802;45.654;13.804;2022-07-29T02:09:58;25.30;99.90
28608;DHT22;15802;45.654;13.804;2022-07-29T02:12:26;25.30;99.90
28608;DHT22;15802;45.654;13.804;2022-07-29T02:14:54;25.40;99.90
28608;DHT22;15802;45.654;13.804;2022-07-29T02:17:26;25.40;99.90
28608;DHT22;15802;45.654;13.804;2022-07-29T02:19:57;25.40;99.90
28608;DHT22;15802;45.654;13.804;2022-07-29T02:22:24;25.40;99.90
28608;DHT22;15802;45.654;13.804;2022-07-29T02:24:51;25.40;99.90
28608;DHT22;15802;45.654;13.804;2022-07-29T02:27:19;25.30;99.90
28608;DHT22;15802;45.654;13.804;2022-07-29T02:29:46;25.40;99.90
28608;DHT22;15802;45.654;13.804;2022-07-29T02:32:14;25.40;99.90
28608;DHT22;15802;45.654;13.804;2022-07-29T02:34:41;25.50;99.90
28608;DHT22;15802;45.654;13.804;2022-07-29T02:37:10;25.40;99.90
28608;DHT22;15802;45.654;13.804;2022-07-29T02:39:37;25.50;99.90
28608;DHT22;15802;45.654;13.804;2022-07-29T02:42:07;25.40;99.90
28608;DHT22;15802;45.654;13.804;2022-07-29T02:44:33;25.40;99.90
28608;DHT22;15802;45.654;13.804;2022-07-29T02:47:14;25.40;99.90
28608;DHT22;15802;45.654;13.804;2022-07-29T02:50:06;25.30;99.90
28608;DHT22;15802;45.654;13.804;2022-07-29T02:52:54;25.30;99.90
28608;DHT22;15802;45.654;13.804;2022-07-29T02:55:42;25.30;99.90
28608;DHT22;15802;45.654;13.804;2022-07-29T02:58:32;25.30;99.90
28608;DHT22;15802;45.654;13.804;2022-07-29T03:01:03;25.40;99.90
28608;DHT22;15802;45.654;13.804;2022-07-29T03:03:34;25.40;99.90
28608;DHT22;15802;45.654;13.804;2022-07-29T03:06:01;25.30;99.90
28608;DHT22;15802;45.654;13.804;2022-07-29T03:08:28;25.30;99.90
28608;DHT22;15802;45.654;13.804;2022-07-29T03:10:55;25.30;99.90
28608;DHT22;15802;45.654;13.804;2022-07-29T03:13:21;25.30;99.90
28608;DHT22;15802;45.654;13.804;2022-07-29T03:15:48;25.40;99.90
28608;DHT22;15802;45.654;13.804;2022-07-29T03:18:15;25.40;99.90
28608;DHT22;15802;45.654;13.804;2022-07-29T03:20:40;25.40;99.90
28608;DHT22;15802;45.654;13.804;2022-07-29T03:23:08;25.40;99.90
28608;DHT22;15802;45.654;13.804;2022-07-29T03:25:34;25.30;99.90
28608;DHT22;15802;45.654;13.804;2022-07-29T03:28:00;25.40;99.90
28608;DHT22;15802;45.654;13.804;2022-07-29T03:30:26;25.40;99.90
28608;DHT22;15802;45.654;13.804;2022-07-29T03:32:52;25.30;99.90
28608;DHT22;15802;45.654;13.804;2022-07-29T03:35:20;25.30;99.90
28608;DHT22;15802;45.654;13.804;2022-07-29T03:37:46;25.30;99.90
28608;DHT22;15802;45.654;13.804;2022-07-29T03:40:18;25.40;99.90
28608;DHT22;15802;45.654;13.804;2022-07-29T03:42:45;25.40;99.90
28608;DHT22;15802;45.654;13.804;2022-07-29T03:45:15;25.30;99.90
28608;DHT22;15802;45.654;13.804;2022-07-29T03:47:47;25.40;99.90
28608;DHT22;15802;45.654;13.804;2022-07-29T03:50:14;25.30;99.90
28608;DHT22;15802;45.654;13.804;2022-07-29T03:52:41;25.30;99.90
28608;DHT22;15802;45.654;13.804;2022-07-29T03:55:07;25.30;99.90
28608;DHT22;15802;45.654;13.804;2022-07-29T03:57:35;25.40;99.90
28608;DHT22;15802;45.654;13.804;2022-07-29T04:00:02;25.40;99.90
28608;DHT22;15802;45.654;13.804;2022-07-29T04:02:29;25.50;99.90
28608;DHT22;15802;45.654;13.804;2022-07-29T04:04:54;25.50;99.90
28608;DHT22;15802;45.654;13.804;2022-07-29T04:07:20;25.50;99.90
28608;DHT22;15802;45.654;13.804;2022-07-29T04:09:46;25.50;99.90
28608;DHT22;15802;45.654;13.804;2022-07-29T04:12:12;25.60;99.90
28608;DHT22;15802;45.654;13.804;2022-07-29T04:14:38;25.60;99.90
28608;DHT22;15802;45.654;13.804;2022-07-29T04:17:04;25.60;99.90
28608;DHT22;15802;45.654;13.804;2022-07-29T04:19:30;25.60;99.90
28608;DHT22;15802;45.654;13.804;2022-07-29T04:21:57;25.70;99.90
28608;DHT22;15802;45.654;13.804;2022-07-29T04:24:23;25.70;99.90
28608;DHT22;15802;45.654;13.804;2022-07-29T04:26:49;25.70;99.90
28608;DHT22;15802;45.654;13.804;2022-07-29T04:29:14;25.70;99.90
28608;DHT22;15802;45.654;13.804;2022-07-29T04:31:41;25.70;99.90
28608;DHT22;15802;45.654;13.804;2022-07-29T04:34:07;25.70;99.90
28608;DHT22;15802;45.654;13.804;2022-07-29T04:36:33;25.60;99.90
28608;DHT22;15802;45.654;13.804;2022-07-29T04:38:59;25.60;99.90
28608;DHT22;15802;45.654;13.804;2022-07-29T04:41:26;25.60;99.90
28608;DHT22;15802;45.654;13.804;2022-07-29T04:43:52;25.70;99.90
28608;DHT22;15802;45.654;13.804;2022-07-29T04:46:17;25.60;99.90
28608;DHT22;15802;45.654;13.804;2022-07-29T04:48:45;25.50;99.90
28608;DHT22;15802;45.654;13.804;2022-07-29T04:51:12;25.50;99.90
28608;DHT22;15802;45.654;13.804;2022-07-29T04:53:37;25.50;99.90
28608;DHT22;15802;45.654;13.804;2022-07-29T04:56:03;25.50;99.90
28608;DHT22;15802;45.654;13.804;2022-07-29T04:58:29;25.40;99.90
28608;DHT22;15802;45.654;13.804;2022-07-29T05:00:55;25.40;99.90
28608;DHT22;15802;45.654;13.804;2022-07-29T05:03:21;25.50;99.90
28608;DHT22;15802;45.654;13.804;2022-07-29T05:05:46;25.50;99.90
28608;DHT22;15802;45.654;13.804;2022-07-29T05:08:12;25.50;99.90
28608;DHT22;15802;45.654;13.804;2022-07-29T05:10:38;25.50;99.90
28608;DHT22;15802;45.654;13.804;2022-07-29T05:13:05;25.60;99.90
28608;DHT22;15802;45.654;13.804;2022-07-29T05:15:32;25.60;99.90
28608;DHT22;15802;45.654;13.804;2022-07-29T05:17:58;25.50;99.90
28608;DHT22;15802;45.654;13.804;2022-07-29T05:20:24;25.50;99.90
28608;DHT22;15802;45.654;13.804;2022-07-29T05:22:54;25.60;99.90
28608;DHT22;15802;45.654;13.804;2022-07-29T05:25:20;25.60;99.90
28608;DHT22;15802;45.654;13.804;2022-07-29T05:27:46;25.50;99.90
28608;DHT22;15802;45.654;13.804;2022-07-29T05:30:12;25.50;99.90
28608;DHT22;15802;45.654;13.804;2022-07-29T05:32:38;25.60;99.90
28608;DHT22;15802;45.654;13.804;2022-07-29T05:35:04;25.60;99.90
28608;DHT22;15802;45.654;13.804;2022-07-29T05:37:30;25.70;99.90
28608;DHT22;15802;45.654;13.804;2022-07-29T05:39:56;25.70;99.90
28608;DHT22;15802;45.654;13.804;2022-07-29T05:42:22;25.70;99.90
28608;DHT22;15802;45.654;13.804;2022-07-29T05:44:47;25.70;99.90
28608;DHT22;15802;45.654;13.804;2022-07-29T05:47:13;25.80;99.90
28608;DHT22;15802;45.654;13.804;2022-07-29T05:49:39;25.90;99.90
28608;DHT22;15802;45.654;13.804;2022-07-29T05:52:05;25.90;99.90
28608;DHT22;15802;45.654;13.804;2022-07-29T05:54:31;26.00;99.90
28608;DHT22;15802;45.654;13.804;2022-07-29T05:56:56;26.00;99.90
28608;DHT22;15802;45.654;13.804;2022-07-29T05:59:22;26.10;99.90
28608;DHT22;15802;45.654;13.804;2022-07-29T06:01:48;26.20;99.90
28608;DHT22;15802;45.654;13.804;2022-07-29T06:04:13;26.30;99.90
28608;DHT22;15802;45.654;13.804;2022-07-29T06:06:39;26.30;99.90
28608;DHT22;15802;45.654;13.804;2022-07-29T06:09:05;26.40;99.90
28608;DHT22;15802;45.654;13.804;2022-07-29T06:11:30;26.50;99.90
28608;DHT22;15802;45.654;13.804;2022-07-29T06:13:56;26.50;99.90
28608;DHT22;15802;45.654;13.804;2022-07-29T06:16:22;26.50;99.90
28608;DHT22;15802;45.654;13.804;2022-07-29T06:18:47;26.50;99.90
28608;DHT22;15802;45.654;13.804;2022-07-29T06:21:13;26.60;99.90
28608;DHT22;15802;45.654;13.804;2022-07-29T06:23:39;26.60;99.90
28608;DHT22;15802;45.654;13.804;2022-07-29T06:26:06;26.70;99.90
28608;DHT22;15802;45.654;13.804;2022-07-29T06:28:32;26.80;99.90
28608;DHT22;15802;45.654;13.804;2022-07-29T06:30:58;26.90;99.90
28608;DHT22;15802;45.654;13.804;2022-07-29T06:33:24;27.00;99.90
28608;DHT22;15802;45.654;13.804;2022-07-29T06:35:50;27.10;99.90
28608;DHT22;15802;45.654;13.804;2022-07-29T06:38:16;27.20;99.90
28608;DHT22;15802;45.654;13.804;2022-07-29T06:40:43;27.20;99.90
28608;DHT22;15802;45.654;13.804;2022-07-29T06:43:32;27.30;99.90
28608;DHT22;15802;45.654;13.804;2022-07-29T06:46:00;27.40;99.90
28608;DHT22;15802;45.654;13.804;2022-07-29T06:48:27;27.50;99.90
28608;DHT22;15802;45.654;13.804;2022-07-29T06:50:52;27.50;99.90
28608;DHT22;15802;45.654;13.804;2022-07-29T06:53:18;27.50;99.90
28608;DHT22;15802;45.654;13.804;2022-07-29T06:55:44;27.50;99.90
28608;DHT22;15802;45.654;13.804;2022-07-29T06:58:10;27.50;99.90
28608;DHT22;15802;45.654;13.804;2022-07-29T07:00:36;27.60;99.90
28608;DHT22;15802;45.654;13.804;2022-07-29T07:03:02;27.70;99.90
28608;DHT22;15802;45.654;13.804;2022-07-29T07:05:28;27.70;99.90
28608;DHT22;15802;45.654;13.804;2022-07-29T07:07:53;27.70;99.90
28608;DHT22;15802;45.654;13.804;2022-07-29T07:10:19;27.70;99.90
28608;DHT22;15802;45.654;13.804;2022-07-29T07:12:45;27.80;99.90
28608;DHT22;15802;45.654;13.804;2022-07-29T07:15:11;27.80;99.90
28608;DHT22;15802;45.654;13.804;2022-07-29T07:17:37;27.80;99.90
28608;DHT22;15802;45.654;13.804;2022-07-29T07:20:04;27.90;99.90
28608;DHT22;15802;45.654;13.804;2022-07-29T07:22:30;28.00;99.90
28608;DHT22;15802;45.654;13.804;2022-07-29T07:24:56;28.10;99.90
28608;DHT22;15802;45.654;13.804;2022-07-29T07:27:22;28.10;99.90
28608;DHT22;15802;45.654;13.804;2022-07-29T07:29:48;28.10;99.90
28608;DHT22;15802;45.654;13.804;2022-07-29T07:32:14;28.30;99.90
28608;DHT22;15802;45.654;13.804;2022-07-29T07:34:42;28.20;99.90
28608;DHT22;15802;45.654;13.804;2022-07-29T07:37:08;28.30;99.90
28608;DHT22;15802;45.654;13.804;2022-07-29T07:39:34;28.40;99.90
28608;DHT22;15802;45.654;13.804;2022-07-29T07:42:00;28.40;99.90
28608;DHT22;15802;45.654;13.804;2022-07-29T07:44:27;28.50;99.90
28608;DHT22;15802;45.654;13.804;2022-07-29T07:46:52;28.50;99.90
28608;DHT22;15802;45.654;13.804;2022-07-29T07:49:18;28.50;99.90
28608;DHT22;15802;45.654;13.804;2022-07-29T07:51:44;28.60;99.90
28608;DHT22;15802;45.654;13.804;2022-07-29T07:54:10;28.60;99.90
28608;DHT22;15802;45.654;13.804;2022-07-29T07:56:36;28.80;99.90
28608;DHT22;15802;45.654;13.804;2022-07-29T07:59:02;28.80;99.90
28608;DHT22;15802;45.654;13.804;2022-07-29T08:01:27;28.80;99.90
28608;DHT22;15802;45.654;13.804;2022-07-29T08:03:53;28.80;99.90
28608;DHT22;15802;45.654;13.804;2022-07-29T08:06:19;28.80;99.90
28608;DHT22;15802;45.654;13.804;2022-07-29T08:08:45;28.90;99.90
28608;DHT22;15802;45.654;13.804;2022-07-29T08:11:10;28.80;99.90
28608;DHT22;15802;45.654;13.804;2022-07-29T08:13:37;28.90;99.90
28608;DHT22;15802;45.654;13.804;2022-07-29T08:16:03;28.90;99.90
28608;DHT22;15802;45.654;13.804;2022-07-29T08:18:38;29.00;99.90
28608;DHT22;15802;45.654;13.804;2022-07-29T08:21:05;29.00;99.90
28608;DHT22;15802;45.654;13.804;2022-07-29T08:23:31;29.00;99.90
28608;DHT22;15802;45.654;13.804;2022-07-29T08:26:08;29.10;99.90
28608;DHT22;15802;45.654;13.804;2022-07-29T08:28:37;29.10;99.90
28608;DHT22;15802;45.654;13.804;2022-07-29T08:31:03;29.20;99.90
28608;DHT22;15802;45.654;13.804;2022-07-29T08:33:29;29.30;99.90
28608;DHT22;15802;45.654;13.804;2022-07-29T08:35:55;29.40;99.90
28608;DHT22;15802;45.654;13.804;2022-07-29T08:38:20;29.40;99.90
28608;DHT22;15802;45.654;13.804;2022-07-29T08:40:46;29.40;99.90
28608;DHT22;15802;45.654;13.804;2022-07-29T08:43:12;29.50;99.90
28608;DHT22;15802;45.654;13.804;2022-07-29T08:45:44;29.50;99.90
28608;DHT22;15802;45.654;13.804;2022-07-29T08:48:14;29.50;99.90
28608;DHT22;15802;45.654;13.804;2022-07-29T08:50:41;29.50;99.90
28608;DHT22;15802;45.654;13.804;2022-07-29T08:53:11;29.50;99.90
28608;DHT22;15802;45.654;13.804;2022-07-29T08:55:40;29.50;99.90
28608;DHT22;15802;45.654;13.804;2022-07-29T08:58:08;29.50;99.90
28608;DHT22;15802;45.654;13.804;2022-07-29T09:00:36;29.40;99.90
28608;DHT22;15802;45.654;13.804;2022-07-29T09:03:04;29.40;99.90
28608;DHT22;15802;45.654;13.804;2022-07-29T09:05:31;29.50;99.90
28608;DHT22;15802;45.654;13.804;2022-07-29T09:07:58;29.60;99.90
28608;DHT22;15802;45.654;13.804;2022-07-29T09:10:24;29.50;99.90
28608;DHT22;15802;45.654;13.804;2022-07-29T09:12:51;29.60;99.90
28608;DHT22;15802;45.654;13.804;2022-07-29T09:15:17;29.70;99.90
28608;DHT22;15802;45.654;13.804;2022-07-29T09:17:46;29.70;99.90
28608;DHT22;15802;45.654;13.804;2022-07-29T09:20:15;29.80;99.90
28608;DHT22;15802;45.654;13.804;2022-07-29T09:22:41;29.80;99.90
28608;DHT22;15802;45.654;13.804;2022-07-29T09:25:07;29.80;99.90
28608;DHT22;15802;45.654;13.804;2022-07-29T09:27:34;29.90;99.90
28608;DHT22;15802;45.654;13.804;2022-07-29T09:30:03;30.00;99.90
28608;DHT22;15802;45.654;13.804;2022-07-29T09:32:30;30.00;99.90
28608;DHT22;15802;45.654;13.804;2022-07-29T09:35:16;30.00;99.40
28608;DHT22;15802;45.654;13.804;2022-07-29T09:37:43;30.00;99.30
28608;DHT22;15802;45.654;13.804;2022-07-29T09:40:19;30.10;99.70
28608;DHT22;15802;45.654;13.804;2022-07-29T09:42:46;30.00;99.90
28608;DHT22;15802;45.654;13.804;2022-07-29T09:45:12;30.10;99.90
28608;DHT22;15802;45.654;13.804;2022-07-29T09:47:51;30.20;99.90
28608;DHT22;15802;45.654;13.804;2022-07-29T09:50:16;30.30;99.70
28608;DHT22;15802;45.654;13.804;2022-07-29T09:52:50;30.30;99.90
28608;DHT22;15802;45.654;13.804;2022-07-29T09:55:16;30.40;99.90
28608;DHT22;15802;45.654;13.804;2022-07-29T09:57:43;30.50;99.80
28608;DHT22;15802;45.654;13.804;2022-07-29T10:00:15;30.50;99.90
28608;DHT22;15802;45.654;13.804;2022-07-29T10:02:43;30.50;99.90
28608;DHT22;15802;45.654;13.804;2022-07-29T10:05:26;30.60;99.90
28608;DHT22;15802;45.654;13.804;2022-07-29T10:07:56;30.60;99.10
28608;DHT22;15802;45.654;13.804;2022-07-29T10:10:26;30.70;99.70
28608;DHT22;15802;45.654;13.804;2022-07-29T10:12:56;30.80;98.50
28608;DHT22;15802;45.654;13.804;2022-07-29T10:15:26;30.80;98.00
28608;DHT22;15802;45.654;13.804;2022-07-29T10:17:55;30.80;98.30
28608;DHT22;15802;45.654;13.804;2022-07-29T10:20:22;30.90;99.20
28608;DHT22;15802;45.654;13.804;2022-07-29T10:22:49;30.90;99.20
28608;DHT22;15802;45.654;13.804;2022-07-29T10:25:16;30.90;98.30
28608;DHT22;15802;45.654;13.804;2022-07-29T10:27:43;31.00;98.40
28608;DHT22;15802;45.654;13.804;2022-07-29T10:30:09;31.10;97.90
28608;DHT22;15802;45.654;13.804;2022-07-29T10:32:54;31.10;98.30
28608;DHT22;15802;45.654;13.804;2022-07-29T10:35:33;31.20;98.90
28608;DHT22;15802;45.654;13.804;2022-07-29T10:38:17;31.20;98.60
28608;DHT22;15802;45.654;13.804;2022-07-29T10:41:25;31.30;97.90
28608;DHT22;15802;45.654;13.804;2022-07-29T10:44:04;31.30;97.90
28608;DHT22;15802;45.654;13.804;2022-07-29T10:46:36;31.40;97.70
28608;DHT22;15802;45.654;13.804;2022-07-29T10:49:19;31.40;97.40
28608;DHT22;15802;45.654;13.804;2022-07-29T10:52:06;31.60;96.60
28608;DHT22;15802;45.654;13.804;2022-07-29T10:54:45;31.70;96.90
28608;DHT22;15802;45.654;13.804;2022-07-29T10:57:16;31.70;96.90
28608;DHT22;15802;45.654;13.804;2022-07-29T10:59:43;31.80;97.40
28608;DHT22;15802;45.654;13.804;2022-07-29T11:02:41;31.90;97.30
28608;DHT22;15802;45.654;13.804;2022-07-29T11:05:14;32.00;97.10
28608;DHT22;15802;45.654;13.804;2022-07-29T11:08:17;32.20;96.60
28608;DHT22;15802;45.654;13.804;2022-07-29T11:10:44;32.20;96.50
28608;DHT22;15802;45.654;13.804;2022-07-29T11:13:10;32.20;96.50
28608;DHT22;15802;45.654;13.804;2022-07-29T11:15:53;32.20;96.20
28608;DHT22;15802;45.654;13.804;2022-07-29T11:18:19;32.20;96.50
28608;DHT22;15802;45.654;13.804;2022-07-29T11:20:48;32.20;96.20
28608;DHT22;15802;45.654;13.804;2022-07-29T11:23:32;32.30;96.30
28608;DHT22;15802;45.654;13.804;2022-07-29T11:26:21;32.30;95.90
28608;DHT22;15802;45.654;13.804;2022-07-29T11:28:54;32.40;96.10
28608;DHT22;15802;45.654;13.804;2022-07-29T11:31:42;32.30;96.20
28608;DHT22;15802;45.654;13.804;2022-07-29T11:34:29;32.40;96.10
28608;DHT22;15802;45.654;13.804;2022-07-29T11:37:17;32.50;96.20
28608;DHT22;15802;45.654;13.804;2022-07-29T11:42:42;32.40;96.20
28608;DHT22;15802;45.654;13.804;2022-07-29T11:45:15;32.50;96.70
28608;DHT22;15802;45.654;13.804;2022-07-29T11:47:53;32.40;96.10
28608;DHT22;15802;45.654;13.804;2022-07-29T11:50:28;32.30;95.60
28608;DHT22;15802;45.654;13.804;2022-07-29T11:52:54;32.40;96.40
28608;DHT22;15802;45.654;13.804;2022-07-29T11:55:21;32.40;96.90
28608;DHT22;15802;45.654;13.804;2022-07-29T11:57:52;32.50;96.30
28608;DHT22;15802;45.654;13.804;2022-07-29T12:00:23;32.50;96.60
28608;DHT22;15802;45.654;13.804;2022-07-29T12:02:50;32.60;96.40
28608;DHT22;15802;45.654;13.804;2022-07-29T12:05:16;32.60;96.70
28608;DHT22;15802;45.654;13.804;2022-07-29T12:07:42;32.60;96.60
28608;DHT22;15802;45.654;13.804;2022-07-29T12:10:08;32.70;97.00
28608;DHT22;15802;45.654;13.804;2022-07-29T12:12:35;32.70;97.60
28608;DHT22;15802;45.654;13.804;2022-07-29T12:15:17;32.70;97.30
28608;DHT22;15802;45.654;13.804;2022-07-29T12:17:47;32.70;97.00
28608;DHT22;15802;45.654;13.804;2022-07-29T12:20:14;32.70;97.70
28608;DHT22;15802;45.654;13.804;2022-07-29T12:22:47;32.80;97.40
28608;DHT22;15802;45.654;13.804;2022-07-29T12:25:14;32.80;98.50
28608;DHT22;15802;45.654;13.804;2022-07-29T12:27:42;32.80;97.40
28608;DHT22;15802;45.654;13.804;2022-07-29T12:30:11;32.80;97.30
28608;DHT22;15802;45.654;13.804;2022-07-29T12:32:46;32.80;98.00
28608;DHT22;15802;45.654;13.804;2022-07-29T12:35:17;32.80;97.30
28608;DHT22;15802;45.654;13.804;2022-07-29T12:37:45;32.70;97.10
28608;DHT22;15802;45.654;13.804;2022-07-29T12:40:15;32.60;97.70
28608;DHT22;15802;45.654;13.804;2022-07-29T12:43:06;32.70;97.10
28608;DHT22;15802;45.654;13.804;2022-07-29T12:45:35;32.70;96.10
28608;DHT22;15802;45.654;13.804;2022-07-29T12:48:01;32.70;96.40
28608;DHT22;15802;45.654;13.804;2022-07-29T12:50:28;32.70;95.70
28608;DHT22;15802;45.654;13.804;2022-07-29T12:52:54;32.70;96.50
28608;DHT22;15802;45.654;13.804;2022-07-29T12:55:39;32.70;97.60
28608;DHT22;15802;45.654;13.804;2022-07-29T12:58:05;32.60;97.90
28608;DHT22;15802;45.654;13.804;2022-07-29T13:00:30;32.50;98.00
28608;DHT22;15802;45.654;13.804;2022-07-29T13:02:58;32.50;98.30
28608;DHT22;15802;45.654;13.804;2022-07-29T13:05:40;32.50;98.20
28608;DHT22;15802;45.654;13.804;2022-07-29T13:08:14;32.40;99.00
28608;DHT22;15802;45.654;13.804;2022-07-29T13:10:41;32.20;98.10
28608;DHT22;15802;45.654;13.804;2022-07-29T13:13:13;32.20;97.90
28608;DHT22;15802;45.654;13.804;2022-07-29T13:15:40;32.10;97.80
28608;DHT22;15802;45.654;13.804;2022-07-29T13:18:27;32.10;97.60
28608;DHT22;15802;45.654;13.804;2022-07-29T13:20:53;32.00;98.00
28608;DHT22;15802;45.654;13.804;2022-07-29T13:23:19;32.00;97.60
28608;DHT22;15802;45.654;13.804;2022-07-29T13:25:44;31.90;97.80
28608;DHT22;15802;45.654;13.804;2022-07-29T13:28:10;32.00;96.80
28608;DHT22;15802;45.654;13.804;2022-07-29T13:30:37;32.00;95.80
28608;DHT22;15802;45.654;13.804;2022-07-29T13:33:03;31.90;97.10
28608;DHT22;15802;45.654;13.804;2022-07-29T13:35:29;31.80;97.80
28608;DHT22;15802;45.654;13.804;2022-07-29T13:37:55;31.80;96.10
28608;DHT22;15802;45.654;13.804;2022-07-29T13:40:20;31.80;97.10
28608;DHT22;15802;45.654;13.804;2022-07-29T13:42:46;31.70;97.30
28608;DHT22;15802;45.654;13.804;2022-07-29T13:45:12;31.60;97.10
28608;DHT22;15802;45.654;13.804;2022-07-29T13:47:38;31.50;96.70
28608;DHT22;15802;45.654;13.804;2022-07-29T13:50:06;31.50;96.10
28608;DHT22;15802;45.654;13.804;2022-07-29T13:52:32;31.50;95.60
28608;DHT22;15802;45.654;13.804;2022-07-29T13:54:59;31.50;96.10
28608;DHT22;15802;45.654;13.804;2022-07-29T13:57:24;31.50;95.90
28608;DHT22;15802;45.654;13.804;2022-07-29T13:59:50;31.50;96.20
28608;DHT22;15802;45.654;13.804;2022-07-29T14:02:16;31.50;96.30
28608;DHT22;15802;45.654;13.804;2022-07-29T14:04:43;31.50;96.70
28608;DHT22;15802;45.654;13.804;2022-07-29T14:07:08;31.50;96.80
28608;DHT22;15802;45.654;13.804;2022-07-29T14:09:35;31.50;96.00
28608;DHT22;15802;45.654;13.804;2022-07-29T14:12:01;31.40;96.00
28608;DHT22;15802;45.654;13.804;2022-07-29T14:14:28;31.50;95.40
28608;DHT22;15802;45.654;13.804;2022-07-29T14:16:54;31.60;94.50
28608;DHT22;15802;45.654;13.804;2022-07-29T14:19:20;31.50;95.40
28608;DHT22;15802;45.654;13.804;2022-07-29T14:21:45;31.50;96.30
28608;DHT22;15802;45.654;13.804;2022-07-29T14:24:11;31.50;96.00
28608;DHT22;15802;45.654;13.804;2022-07-29T14:26:37;31.60;94.00
28608;DHT22;15802;45.654;13.804;2022-07-29T14:29:03;31.70;94.20
28608;DHT22;15802;45.654;13.804;2022-07-29T14:31:28;31.80;93.50
28608;DHT22;15802;45.654;13.804;2022-07-29T14:33:54;31.70;93.30
28608;DHT22;15802;45.654;13.804;2022-07-29T14:36:20;31.60;93.70
28608;DHT22;15802;45.654;13.804;2022-07-29T14:38:46;31.60;94.50
28608;DHT22;15802;45.654;13.804;2022-07-29T14:41:12;31.60;94.20
28608;DHT22;15802;45.654;13.804;2022-07-29T14:43:37;31.60;93.90
28608;DHT22;15802;45.654;13.804;2022-07-29T14:46:03;31.50;93.60
28608;DHT22;15802;45.654;13.804;2022-07-29T14:48:29;31.50;93.90
28608;DHT22;15802;45.654;13.804;2022-07-29T14:50:55;31.60;93.60
28608;DHT22;15802;45.654;13.804;2022-07-29T14:53:22;31.60;93.80
28608;DHT22;15802;45.654;13.804;2022-07-29T14:55:48;31.60;93.70
28608;DHT22;15802;45.654;13.804;2022-07-29T14:58:14;31.60;93.30
28608;DHT22;15802;45.654;13.804;2022-07-29T15:00:40;31.60;93.50
28608;DHT22;15802;45.654;13.804;2022-07-29T15:03:06;31.60;93.10
28608;DHT22;15802;45.654;13.804;2022-07-29T15:05:34;31.60;93.10
28608;DHT22;15802;45.654;13.804;2022-07-29T15:08:00;31.60;92.80
28608;DHT22;15802;45.654;13.804;2022-07-29T15:10:26;31.60;92.90
28608;DHT22;15802;45.654;13.804;2022-07-29T15:12:53;31.50;93.10
28608;DHT22;15802;45.654;13.804;2022-07-29T15:15:19;31.40;93.00
28608;DHT22;15802;45.654;13.804;2022-07-29T15:17:44;31.40;92.70
28608;DHT22;15802;45.654;13.804;2022-07-29T15:20:11;31.40;93.10
28608;DHT22;15802;45.654;13.804;2022-07-29T15:22:37;31.50;92.90
28608;DHT22;15802;45.654;13.804;2022-07-29T15:25:04;31.50;92.70
28608;DHT22;15802;45.654;13.804;2022-07-29T15:27:30;31.50;92.30